Terminal Aerodrome Forecast
Issued by NWS

Home | Current Version | Previous Version | Text Only | Print | Product List | Glossary On
Versions: 1 2 3 4 5 6 7 8 9 10 11 12 13 14
030
FTUS43 KGRB 121452 AAA
TAFMTW
TAF AMD
KMTW 121452Z 1215/1312 31015G26KT P6SM -SHSN BKN035
     FM130200 30013G20KT P6SM SCT035=

USA.gov is the U.S. government's official web portal to all federal, state and local government web resources and services.